シェレメーチエヴォ国際空港(モスクワ) の過去48時間の天気

シェレメーチエヴォ国際空港(モスクワ) (Moscow / Sheremet'Ye )

現在時刻: 7/2 15:41 MSK (7/2 12:41 UTC) 以下の時間は現地時間です。

過去48時間のMETAR気象情報
時間 風向 風速(m/s) 視程 気温(℃) 湿度(%) 気圧(hPa) 天気現象
2 15:00 南西 5 10km以上 23 53 1011 弱いしゅう雨
2 14:30 南西 7 10km以上 24 54 1011
2 14:00 西南西 7 10km以上 24 54 1011
2 13:30 南西 7 10km以上 24 47 1011
2 13:00 西 6 10km以上 23 57 1011
2 12:30 西南西 5 10km以上 23 61 1011
2 12:00 西南西 4 10km以上 24 54 1011
2 11:30 南西 4 10km以上 23 53 1011
2 11:00 南西 5 10km以上 21 56 1011
2 10:30 西 4 10km以上 21 64 1011
2 10:00 西 4 10km以上 21 64 1011
2 09:30 西 4 10km以上 21 69 1011
2 09:00 西 4 10km以上 19 73 1011
2 08:30 西南西 4 10km以上 20 68 1011
2 08:00 西南西 4 10km以上 19 73 1011
2 07:30 西南西 4 10km以上 18 73 1011
2 07:00 南西 3 10km以上 17 83 1010
2 06:30 南西 4 10km以上 16 82 1010
2 06:00 南南西 3 10km以上 15 88 1010 弱いしゅう雨
2 05:30 南西 3 10km以上 15 88 1010
2 05:00 西南西 3 10km以上 15 88 1010
2 04:30 南西 4 10km以上 15 82 1010
2 04:00 南西 3 10km以上 15 82 1010
2 03:30 不定 1 10km以上 14 88 1010
2 03:00 不定 1 10km以上 15 82 1009
2 02:30 2 10km以上 15 82 1010
2 02:00 南南西 3 10km以上 15 88 1010
2 01:30 西 3 8000m 15 88 1010 弱いしゅう雨
2 01:00 南西 3 10km以上 15 82 1009 弱いしゅう雨
2 00:30 南南西 3 10km以上 15 88 1009
2 00:00 南南西 3 10km以上 15 88 1009
1 23:30 南南西 3 10km以上 15 88 1009
1 23:00 南南西 3 10km以上 16 82 1009
1 22:30 西南西 3 10km以上 16 88 1009 弱いしゅう雨
1 22:00 西南西 8 8000m 16 82 1009 弱いしゅう雨
1 21:30 東南東 3 10km以上 16 82 1008
1 21:00 2 10km以上 16 77 1008 弱いしゅう雨
1 20:30 北北東 3 10km以上 17 77 1008
1 20:00 北西 5 6000m 15 88 1008 しゅう雨
1 19:30 南西 4 10km以上 21 56 1008
1 19:00 南西 6 10km以上 21 56 1008
1 18:30 南西 6 10km以上 21 53 1008
1 18:00 南西 6 10km以上 22 50 1008
1 17:30 南西 6 10km以上 21 49 1008
1 17:00 西 8 10km以上 21 56 1008
1 16:30 西南西 6 10km以上 22 50 1007
1 16:00 西南西 5 10km以上 23 44 1008
1 15:30 西南西 6 10km以上 22 50 1007 弱いしゅう雨
1 15:00 西 6 10km以上 23 47 1007
1 14:30 西南西 7 10km以上 22 46 1008
1 14:00 西南西 6 10km以上 22 50 1007
1 13:30 西南西 6 10km以上 23 44 1007
1 13:00 西南西 5 10km以上 23 44 1007
1 12:30 西南西 6 10km以上 24 41 1007
1 12:00 西 5 10km以上 23 47 1007
1 11:30 西南西 7 10km以上 22 46 1008
1 11:00 西南西 6 10km以上 22 46 1007
1 10:30 西 6 10km以上 21 56 1007 風塵
1 10:00 西南西 5 10km以上 21 53 1007
1 09:30 西南西 5 10km以上 21 56 1007
1 09:00 西南西 4 10km以上 20 64 1007
1 08:30 西 5 10km以上 19 68 1007
1 08:00 西北西 4 10km以上 19 68 1007
1 07:30 西 4 10km以上 18 73 1007
1 07:00 西 3 10km以上 17 77 1007
1 06:30 西 4 10km以上 16 82 1007
1 06:00 西北西 5 10km以上 16 82 1007
1 05:30 西北西 4 10km以上 16 82 1006
1 05:00 西北西 4 10km以上 16 88 1006
1 04:30 西北西 5 10km以上 16 88 1005
1 04:00 西 4 10km以上 16 88 1005
1 03:30 西南西 3 10km以上 16 88 1005
1 03:00 西 4 8000m 16 88 1005 弱い雨
1 02:30 西南西 3 4600m 16 88 1005 弱い雨
1 02:00 西 4 6000m 16 88 1005 弱いしゅう雨
1 01:30 南南西 3 6000m 17 77 1005 弱いしゅう雨
1 01:00 5 10km以上 18 73 1005 弱い雨
1 00:30 6 10km以上 19 60 1004 弱い雨
1 00:00 4 10km以上 20 56 1004
30 23:30 南南東 3 10km以上 19 56 1004
30 23:00 南南東 4 10km以上 19 60 1004 弱い雨
30 22:30 南南東 4 10km以上 20 49 1005
30 22:00 南南東 5 10km以上 20 49 1005
30 21:30 南南東 6 10km以上 20 49 1005
30 21:00 南南東 5 10km以上 21 46 1005
30 20:30 南南東 5 10km以上 21 46 1005
30 20:00 南南東 5 10km以上 21 46 1005
30 19:30 南南東 5 10km以上 22 41 1006
30 19:00 6 10km以上 22 43 1006
30 18:30 南南東 7 10km以上 22 41 1006
30 18:00 南南東 6 10km以上 23 38 1006
30 17:30 南南東 6 10km以上 23 41 1007
30 17:00 5 10km以上 23 41 1007
30 16:30 5 10km以上 23 38 1007
30 16:00 南南東 6 10km以上 23 41 1007
UUEE 021200Z 23005MPS 200V260 9999 -SHRA SCT024CB 23/13 Q1011 R24L/CLRD62 NOSIG
UUEE 021130Z 23007MPS CAVOK 24/14 Q1011 R24L/CLRD62 NOSIG
UUEE 021100Z 25007MPS 220V280 9999 FEW046 24/14 Q1011 R24L/CLRD62 NOSIG
UUEE 021030Z 23007MPS 200V280 CAVOK 24/12 Q1011 R24L/CLRD62 NOSIG
UUEE 021000Z 26006MPS 220V290 9999 FEW041 23/14 Q1011 R24L/CLRD62 NOSIG
UUEE 020930Z 25005MPS CAVOK 23/15 Q1011 R24L/CLRD62 NOSIG
UUEE 020900Z 24004MPS 190V280 CAVOK 24/14 Q1011 R24L/CLRD62 NOSIG
UUEE 020830Z 22004MPS 180V260 CAVOK 23/13 Q1011 R24L/CLRD62 NOSIG
UUEE 020800Z 22005MPS CAVOK 21/12 Q1011 R24L/CLRD62 NOSIG
UUEE 020730Z 26004MPS 230V300 CAVOK 21/14 Q1011 R24L/CLRD62 NOSIG
UUEE 020700Z 26004MPS 220V290 CAVOK 21/14 Q1011 R24L/CLRD62 NOSIG
UUEE 020630Z 26004MPS CAVOK 21/15 Q1011 R24L/CLRD62 NOSIG
UUEE 020600Z 26004MPS CAVOK 19/14 Q1011 R24L/CLRD62 NOSIG
UUEE 020530Z 25004MPS CAVOK 20/14 Q1011 R24L/CLRD62 NOSIG
UUEE 020500Z 24004MPS 190V260 CAVOK 19/14 Q1011 R24L/CLRD62 NOSIG
UUEE 020430Z 24004MPS CAVOK 18/13 Q1011 R24L/CLRD62 NOSIG
UUEE 020400Z 23003MPS CAVOK 17/14 Q1010 R24L/CLRD62 NOSIG
UUEE 020330Z 23004MPS 190V250 CAVOK 16/13 Q1010 R24L/190057 NOSIG
UUEE 020300Z 21003MPS 180V240 9999 -SHRA FEW059CB 15/13 Q1010 R24L/190057 NOSIG
UUEE 020230Z 22003MPS CAVOK 15/13 Q1010 R24L/190057 NOSIG
UUEE 020200Z 24003MPS CAVOK 15/13 Q1010 R24L/190057 NOSIG
UUEE 020130Z 23004MPS CAVOK 15/12 Q1010 R24L/190057 NOSIG
UUEE 020100Z 22003MPS CAVOK 15/12 Q1010 R24L/190057 NOSIG
UUEE 020030Z VRB01MPS CAVOK 14/12 Q1010 R24L/290051 NOSIG
UUEE 020000Z VRB01MPS CAVOK 15/12 Q1009 R24L/290051 NOSIG
UUEE 012330Z 18002MPS 140V240 CAVOK 15/12 Q1010 R24L/290051 NOSIG
UUEE 012300Z 21003MPS CAVOK 15/13 Q1010 R24L/290051 NOSIG
UUEE 012230Z 26003MPS 8000 -SHRA SCT032CB 15/13 Q1010 R24L/290051 NOSIG
UUEE 012200Z 23003MPS 9999 -SHRA FEW053CB 15/12 Q1009 R24L/290051 NOSIG
UUEE 012130Z 21003MPS CAVOK 15/13 Q1009 R24L/290051 NOSIG
UUEE 012100Z 21003G08MPS 170V240 CAVOK 15/13 Q1009 R24L/290051 NOSIG
UUEE 012030Z 21003MPS 180V240 CAVOK 15/13 Q1009 R24L/290051 NOSIG
UUEE 012000Z 21003MPS CAVOK 16/13 Q1009 R24L/290051 NOSIG
UUEE 011930Z 25003MPS 210V340 9999 -SHRA SCT059CB 16/14 Q1009 R24L/290051 NOSIG
UUEE 011900Z 25008MPS 8000 -SHRA BKN066CB 16/13 Q1009 R24L/290051 TEMPO 0900 +TSRAGR SCT007 BKN016CB
UUEE 011830Z 12003MPS 100V170 9999 BKN043CB 16/13 Q1008 R24L/290051 TEMPO 0900 +TSRAGR SCT007 BKN016CB
UUEE 011800Z 08002MPS 9999 -SHRA SCT034CB 16/12 Q1008 R24L/290251 TEMPO 0900 +TSRAGR SCT007 BKN016CB
UUEE 011730Z 02003MPS 9999 FEW039CB 17/13 Q1008 RMK WS R24L R24L/290251 NOSIG
UUEE 011700Z 32005MPS 6000 1000NE R24L/1000D SHRA BKN030CB 15/13 Q1008 RETSGR R24L/290051 TEMPO 0900 +TSRAGR
UUEE 011630Z 22004MPS 9999 SCT058CB 21/12 Q1008 R24L/CLRD62 TEMPO -TSRA
UUEE 011600Z 23006MPS 200V260 9999 FEW050CB 21/12 Q1008 R24L/CLRD62 TEMPO -TSRA
UUEE 011530Z 22006G11MPS CAVOK 21/11 Q1008 R24L/CLRD62 NOSIG
UUEE 011500Z 22006MPS CAVOK 22/11 Q1008 R24L/CLRD62 NOSIG
UUEE 011430Z 22006MPS CAVOK 21/10 Q1008 R24L/CLRD62 NOSIG
UUEE 011400Z 26008MPS CAVOK 21/12 Q1008 R24L/CLRD62 NOSIG
UUEE 011330Z 24006MPS 9999 SCT070CB 22/11 Q1007 R24L/CLRD62 TEMPO 1500 TSRA
UUEE 011300Z 24005MPS 9999 SCT051CB 23/10 Q1008 R24L/CLRD62 TEMPO 1500 TSRA
UUEE 011230Z 25006MPS 9999 -SHRA SCT065CB 22/11 Q1007 R24L/CLRD62 TEMPO 1500 TSRA
UUEE 011200Z 27006MPS 9999 SCT050CB 23/11 Q1007 R24L/CLRD62 NOSIG
UUEE 011130Z 24007MPS 9999 SCT050CB 22/10 Q1008 R24L/CLRD62 NOSIG
UUEE 011100Z 25006MPS 9999 SCT050TCU 22/11 Q1007 R24L/CLRD62 NOSIG
UUEE 011030Z 24006MPS 210V270 9999 SCT049CB 23/10 Q1007 R24L/CLRD62 NOSIG
UUEE 011000Z 25005MPS 220V280 CAVOK 23/10 Q1007 R24L/CLRD62 NOSIG
UUEE 010930Z 24006G11MPS 210V300 CAVOK 24/10 Q1007 R24L/CLRD62 NOSIG
UUEE 010900Z 26005MPS 220V290 9999 SCT047 23/11 Q1007 R24L/CLRD62 NOSIG
UUEE 010830Z 25007MPS 9999 SCT043 22/10 Q1008 R24L/CLRD62 NOSIG
UUEE 010800Z 25006MPS 220V290 9999 SCT042 22/10 Q1007 R24L/CLRD62 NOSIG
UUEE 010730Z 26006MPS 230V290 9999 3000NE DU SCT038 21/12 Q1007 R24L/CLRD62 NOSIG
UUEE 010700Z 25005MPS 190V290 9999 SCT039 21/11 Q1007 R24L/CLRD62 NOSIG
UUEE 010630Z 24005MPS 210V270 9999 SCT028 21/12 Q1007 R24L/CLRD62 NOSIG
UUEE 010600Z 25004MPS 190V280 9999 FEW021 20/13 Q1007 R24L/CLRD62 NOSIG
UUEE 010530Z 26005MPS 9999 FEW023 19/13 Q1007 R24L/CLRD62 NOSIG
UUEE 010500Z 29004MPS 9999 FEW020 19/13 Q1007 R24L/CLRD62 NOSIG
UUEE 010430Z 27004MPS 250V310 9999 FEW020 18/13 Q1007 R24L/CLRD62 NOSIG
UUEE 010400Z 28003MPS 260V330 CAVOK 17/13 Q1007 R24L/CLRD62 NOSIG
UUEE 010330Z 28004MPS CAVOK 16/13 Q1007 R24L/CLRD62 NOSIG
UUEE 010300Z 29005MPS 9999 FEW008 16/13 Q1007 R24L/CLRD62 NOSIG
UUEE 010230Z 30004MPS 260V320 9999 SCT008 16/13 Q1006 R24L/290051 NOSIG
UUEE 010200Z 29004MPS 9999 FEW009 SCT023 16/14 Q1006 R24L/290051 NOSIG
UUEE 010130Z 29005MPS 9999 SCT007 BKN022 16/14 Q1005 R24L/290051 NOSIG
UUEE 010100Z 28004MPS 250V310 9999 SCT005 OVC023 16/14 Q1005 R24L/290051 NOSIG
UUEE 010030Z 25003MPS 9999 SCT005 OVC046 16/14 Q1005 R24L/290051 NOSIG
UUEE 010000Z 26004MPS 8000 -RA OVC007 16/14 Q1005 R24L/290051 NOSIG
UUEE 302330Z 25003MPS 4600 -RA OVC009 16/14 Q1005 R24L/290051 NOSIG
UUEE 302300Z 26004MPS 220V280 6000 -SHRA BKN014CB 16/14 Q1005 R24L/290051 NOSIG
UUEE 302230Z 20003MPS 6000 -SHRA BKN015CB 17/13 Q1005 R24L/290051 NOSIG
UUEE 302200Z 19005MPS 9999 -RA BKN027 18/13 Q1005 R24L/290051 NOSIG
UUEE 302130Z 19006MPS 150V220 9999 -RA NSC 19/11 Q1004 R24L/290051 NOSIG
UUEE 302100Z 18004MPS 130V210 CAVOK 20/11 Q1004 R06R/290051 NOSIG
UUEE 302030Z 16003MPS 130V190 CAVOK 19/10 Q1004 R06R/290051 NOSIG
UUEE 302000Z 16004MPS 9999 -RA OVC048 19/11 Q1004 R06R/290051 NOSIG
UUEE 301930Z 16004MPS 110V190 CAVOK 20/09 Q1005 R06R/CLRD62 NOSIG
UUEE 301900Z 16005MPS CAVOK 20/09 Q1005 R06R/CLRD62 NOSIG
UUEE 301830Z 16006MPS 110V180 CAVOK 20/09 Q1005 R06R/CLRD62 NOSIG
UUEE 301800Z 16005MPS 110V190 CAVOK 21/09 Q1005 R06R/CLRD62 NOSIG
UUEE 301730Z 16005MPS CAVOK 21/09 Q1005 R06R/CLRD62 NOSIG
UUEE 301700Z 15005MPS 120V180 CAVOK 21/09 Q1005 R06R/CLRD62 NOSIG
UUEE 301630Z 16005MPS 110V200 CAVOK 22/08 Q1006 R06R/CLRD62 NOSIG
UUEE 301600Z 17006MPS 140V200 CAVOK 22/09 Q1006 R06R/CLRD62 NOSIG
UUEE 301530Z 15007MPS CAVOK 22/08 Q1006 R06R/CLRD62 NOSIG
UUEE 301500Z 15006MPS 110V180 CAVOK 23/08 Q1006 R06R/CLRD62 NOSIG
UUEE 301430Z 15006MPS 120V190 CAVOK 23/09 Q1007 R06R/CLRD62 NOSIG
UUEE 301400Z 17005MPS 140V200 CAVOK 23/09 Q1007 R06R/CLRD62 NOSIG
UUEE 301330Z 17005MPS 140V210 CAVOK 23/08 Q1007 R06R/CLRD62 NOSIG
UUEE 301300Z 16006MPS 130V190 CAVOK 23/09 Q1007 R06R/CLRD62 NOSIG